sensor_id;sensor_type;location;lat;lon;timestamp;pressure;altitude;pressure_sealevel;temperature
25514;BMP180;48128;54.242;10.280;2024-02-21T00:01:31;101153.00;;;8.00
25514;BMP180;48128;54.242;10.280;2024-02-21T00:03:58;101149.00;;;8.00
25514;BMP180;48128;54.242;10.280;2024-02-21T00:06:25;101148.00;;;8.00
25514;BMP180;48128;54.242;10.280;2024-02-21T00:08:52;101152.00;;;8.00
25514;BMP180;48128;54.242;10.280;2024-02-21T00:11:19;101147.00;;;8.00
25514;BMP180;48128;54.242;10.280;2024-02-21T00:13:46;101141.00;;;8.00
25514;BMP180;48128;54.242;10.280;2024-02-21T00:16:13;101151.00;;;8.10
25514;BMP180;48128;54.242;10.280;2024-02-21T00:18:43;101149.00;;;8.10
25514;BMP180;48128;54.242;10.280;2024-02-21T00:21:10;101144.00;;;8.10
25514;BMP180;48128;54.242;10.280;2024-02-21T00:23:42;101142.00;;;8.10
25514;BMP180;48128;54.242;10.280;2024-02-21T00:26:08;101137.00;;;8.10
25514;BMP180;48128;54.242;10.280;2024-02-21T00:28:35;101135.00;;;8.10
25514;BMP180;48128;54.242;10.280;2024-02-21T00:31:02;101126.00;;;8.10
25514;BMP180;48128;54.242;10.280;2024-02-21T00:33:33;101114.00;;;8.10
25514;BMP180;48128;54.242;10.280;2024-02-21T00:36:00;101108.00;;;8.20
25514;BMP180;48128;54.242;10.280;2024-02-21T00:38:27;101109.00;;;8.20
25514;BMP180;48128;54.242;10.280;2024-02-21T00:40:54;101105.00;;;8.20
25514;BMP180;48128;54.242;10.280;2024-02-21T00:43:21;101095.00;;;8.20
25514;BMP180;48128;54.242;10.280;2024-02-21T00:45:50;101100.00;;;8.20
25514;BMP180;48128;54.242;10.280;2024-02-21T00:48:20;101101.00;;;8.20
25514;BMP180;48128;54.242;10.280;2024-02-21T00:50:47;101089.00;;;8.20
25514;BMP180;48128;54.242;10.280;2024-02-21T00:53:14;101086.00;;;8.20
25514;BMP180;48128;54.242;10.280;2024-02-21T00:55:41;101074.00;;;8.20
25514;BMP180;48128;54.242;10.280;2024-02-21T00:58:10;101067.00;;;8.20
25514;BMP180;48128;54.242;10.280;2024-02-21T01:00:37;101071.00;;;8.20
25514;BMP180;48128;54.242;10.280;2024-02-21T01:03:04;101064.00;;;8.20
25514;BMP180;48128;54.242;10.280;2024-02-21T01:05:31;101061.00;;;8.20
25514;BMP180;48128;54.242;10.280;2024-02-21T01:07:58;101061.00;;;8.30
25514;BMP180;48128;54.242;10.280;2024-02-21T01:10:25;101054.00;;;8.30
25514;BMP180;48128;54.242;10.280;2024-02-21T01:12:52;101051.00;;;8.30
25514;BMP180;48128;54.242;10.280;2024-02-21T01:15:19;101062.00;;;8.30
25514;BMP180;48128;54.242;10.280;2024-02-21T01:17:46;101058.00;;;8.30
25514;BMP180;48128;54.242;10.280;2024-02-21T01:20:13;101043.00;;;8.30
25514;BMP180;48128;54.242;10.280;2024-02-21T01:22:40;101044.00;;;8.30
25514;BMP180;48128;54.242;10.280;2024-02-21T01:25:07;101037.00;;;8.30
25514;BMP180;48128;54.242;10.280;2024-02-21T01:27:34;101031.00;;;8.30
25514;BMP180;48128;54.242;10.280;2024-02-21T01:30:01;101012.00;;;8.30
25514;BMP180;48128;54.242;10.280;2024-02-21T01:32:29;101017.00;;;8.30
25514;BMP180;48128;54.242;10.280;2024-02-21T01:34:56;101018.00;;;8.30
25514;BMP180;48128;54.242;10.280;2024-02-21T01:37:23;100995.00;;;8.30
25514;BMP180;48128;54.242;10.280;2024-02-21T01:39:50;100980.00;;;8.30
25514;BMP180;48128;54.242;10.280;2024-02-21T01:42:17;100988.00;;;8.30
25514;BMP180;48128;54.242;10.280;2024-02-21T01:44:44;100986.00;;;8.30
25514;BMP180;48128;54.242;10.280;2024-02-21T01:47:11;100981.00;;;8.30
25514;BMP180;48128;54.242;10.280;2024-02-21T01:49:41;100985.00;;;8.30
25514;BMP180;48128;54.242;10.280;2024-02-21T01:52:08;100975.00;;;8.30
25514;BMP180;48128;54.242;10.280;2024-02-21T01:54:37;100955.00;;;8.30
25514;BMP180;48128;54.242;10.280;2024-02-21T01:57:04;100916.00;;;8.40
25514;BMP180;48128;54.242;10.280;2024-02-21T01:59:32;100933.00;;;8.40
25514;BMP180;48128;54.242;10.280;2024-02-21T02:01:59;100939.00;;;8.40
25514;BMP180;48128;54.242;10.280;2024-02-21T02:04:27;100927.00;;;8.40
25514;BMP180;48128;54.242;10.280;2024-02-21T02:06:54;100942.00;;;8.40
25514;BMP180;48128;54.242;10.280;2024-02-21T02:09:22;100934.00;;;8.40
25514;BMP180;48128;54.242;10.280;2024-02-21T02:11:49;100929.00;;;8.40
25514;BMP180;48128;54.242;10.280;2024-02-21T02:14:16;100909.00;;;8.40
25514;BMP180;48128;54.242;10.280;2024-02-21T02:16:46;100886.00;;;8.40
25514;BMP180;48128;54.242;10.280;2024-02-21T02:19:14;100898.00;;;8.40
25514;BMP180;48128;54.242;10.280;2024-02-21T02:21:52;100895.00;;;8.40
25514;BMP180;48128;54.242;10.280;2024-02-21T02:24:24;100893.00;;;8.40
25514;BMP180;48128;54.242;10.280;2024-02-21T02:26:54;100885.00;;;8.40
25514;BMP180;48128;54.242;10.280;2024-02-21T02:29:21;100891.00;;;8.40
25514;BMP180;48128;54.242;10.280;2024-02-21T02:31:49;100893.00;;;8.40
25514;BMP180;48128;54.242;10.280;2024-02-21T02:34:16;100880.00;;;8.40
25514;BMP180;48128;54.242;10.280;2024-02-21T02:36:43;100888.00;;;8.40
25514;BMP180;48128;54.242;10.280;2024-02-21T02:39:10;100872.00;;;8.40
25514;BMP180;48128;54.242;10.280;2024-02-21T02:41:37;100869.00;;;8.40
25514;BMP180;48128;54.242;10.280;2024-02-21T02:44:04;100870.00;;;8.40
25514;BMP180;48128;54.242;10.280;2024-02-21T02:46:31;100864.00;;;8.40
25514;BMP180;48128;54.242;10.280;2024-02-21T02:48:58;100861.00;;;8.50
25514;BMP180;48128;54.242;10.280;2024-02-21T02:51:25;100861.00;;;8.50
25514;BMP180;48128;54.242;10.280;2024-02-21T02:53:51;100870.00;;;8.50
25514;BMP180;48128;54.242;10.280;2024-02-21T02:56:18;100871.00;;;8.50
25514;BMP180;48128;54.242;10.280;2024-02-21T02:58:45;100868.00;;;8.50
25514;BMP180;48128;54.242;10.280;2024-02-21T03:01:12;100860.00;;;8.50
25514;BMP180;48128;54.242;10.280;2024-02-21T03:03:40;100866.00;;;8.50
25514;BMP180;48128;54.242;10.280;2024-02-21T03:06:07;100849.00;;;8.50
25514;BMP180;48128;54.242;10.280;2024-02-21T03:08:34;100875.00;;;8.50
25514;BMP180;48128;54.242;10.280;2024-02-21T03:11:01;100879.00;;;8.50
25514;BMP180;48128;54.242;10.280;2024-02-21T03:13:28;100873.00;;;8.50
25514;BMP180;48128;54.242;10.280;2024-02-21T03:15:55;100879.00;;;8.50
25514;BMP180;48128;54.242;10.280;2024-02-21T03:18:22;100871.00;;;8.50
25514;BMP180;48128;54.242;10.280;2024-02-21T03:20:49;100873.00;;;8.50
25514;BMP180;48128;54.242;10.280;2024-02-21T03:23:17;100870.00;;;8.50
25514;BMP180;48128;54.242;10.280;2024-02-21T03:25:44;100875.00;;;8.50
25514;BMP180;48128;54.242;10.280;2024-02-21T03:28:11;100863.00;;;8.50
25514;BMP180;48128;54.242;10.280;2024-02-21T03:30:38;100870.00;;;8.50
25514;BMP180;48128;54.242;10.280;2024-02-21T03:33:05;100880.00;;;8.50
25514;BMP180;48128;54.242;10.280;2024-02-21T03:35:32;100870.00;;;8.50
25514;BMP180;48128;54.242;10.280;2024-02-21T03:37:59;100875.00;;;8.50
25514;BMP180;48128;54.242;10.280;2024-02-21T03:40:36;100861.00;;;8.40
25514;BMP180;48128;54.242;10.280;2024-02-21T03:43:03;100856.00;;;8.50
25514;BMP180;48128;54.242;10.280;2024-02-21T03:45:30;100859.00;;;8.40
25514;BMP180;48128;54.242;10.280;2024-02-21T03:47:56;100864.00;;;8.50
25514;BMP180;48128;54.242;10.280;2024-02-21T03:50:24;100863.00;;;8.40
25514;BMP180;48128;54.242;10.280;2024-02-21T03:52:52;100869.00;;;8.50
25514;BMP180;48128;54.242;10.280;2024-02-21T03:55:19;100857.00;;;8.40
25514;BMP180;48128;54.242;10.280;2024-02-21T03:57:46;100869.00;;;8.50
25514;BMP180;48128;54.242;10.280;2024-02-21T04:00:13;100883.00;;;8.50
25514;BMP180;48128;54.242;10.280;2024-02-21T04:02:40;100893.00;;;8.50
25514;BMP180;48128;54.242;10.280;2024-02-21T04:05:07;100898.00;;;8.40
25514;BMP180;48128;54.242;10.280;2024-02-21T04:07:38;100892.00;;;8.40
25514;BMP180;48128;54.242;10.280;2024-02-21T04:10:05;100888.00;;;8.40
25514;BMP180;48128;54.242;10.280;2024-02-21T04:12:32;100892.00;;;8.30
25514;BMP180;48128;54.242;10.280;2024-02-21T04:14:59;100891.00;;;8.30
25514;BMP180;48128;54.242;10.280;2024-02-21T04:17:26;100903.00;;;8.20
25514;BMP180;48128;54.242;10.280;2024-02-21T04:19:56;100899.00;;;8.20
25514;BMP180;48128;54.242;10.280;2024-02-21T04:22:28;100904.00;;;8.20
25514;BMP180;48128;54.242;10.280;2024-02-21T04:24:55;100914.00;;;8.20
25514;BMP180;48128;54.242;10.280;2024-02-21T04:27:22;100903.00;;;8.10
25514;BMP180;48128;54.242;10.280;2024-02-21T04:29:49;100908.00;;;8.10
25514;BMP180;48128;54.242;10.280;2024-02-21T04:32:16;100916.00;;;8.00
25514;BMP180;48128;54.242;10.280;2024-02-21T04:34:43;100919.00;;;8.00
25514;BMP180;48128;54.242;10.280;2024-02-21T04:37:10;100933.00;;;8.00
25514;BMP180;48128;54.242;10.280;2024-02-21T04:39:37;100924.00;;;8.00
25514;BMP180;48128;54.242;10.280;2024-02-21T04:42:04;100930.00;;;7.90
25514;BMP180;48128;54.242;10.280;2024-02-21T04:44:31;100922.00;;;7.90
25514;BMP180;48128;54.242;10.280;2024-02-21T04:46:58;100927.00;;;7.90
25514;BMP180;48128;54.242;10.280;2024-02-21T04:49:25;100923.00;;;7.90
25514;BMP180;48128;54.242;10.280;2024-02-21T04:51:52;100917.00;;;7.90
25514;BMP180;48128;54.242;10.280;2024-02-21T04:54:19;100919.00;;;7.90
25514;BMP180;48128;54.242;10.280;2024-02-21T04:56:46;100920.00;;;7.90
25514;BMP180;48128;54.242;10.280;2024-02-21T04:59:15;100921.00;;;7.90
25514;BMP180;48128;54.242;10.280;2024-02-21T05:01:42;100924.00;;;7.90
25514;BMP180;48128;54.242;10.280;2024-02-21T05:04:09;100922.00;;;7.80
25514;BMP180;48128;54.242;10.280;2024-02-21T05:06:39;100908.00;;;7.90
25514;BMP180;48128;54.242;10.280;2024-02-21T05:09:07;100909.00;;;7.80
25514;BMP180;48128;54.242;10.280;2024-02-21T05:11:38;100924.00;;;7.80
25514;BMP180;48128;54.242;10.280;2024-02-21T05:14:05;100921.00;;;7.80
25514;BMP180;48128;54.242;10.280;2024-02-21T05:16:33;100919.00;;;7.80
25514;BMP180;48128;54.242;10.280;2024-02-21T05:19:00;100909.00;;;7.80
25514;BMP180;48128;54.242;10.280;2024-02-21T05:21:28;100909.00;;;7.80
25514;BMP180;48128;54.242;10.280;2024-02-21T05:23:55;100912.00;;;7.80
25514;BMP180;48128;54.242;10.280;2024-02-21T05:26:25;100910.00;;;7.80
25514;BMP180;48128;54.242;10.280;2024-02-21T05:28:52;100907.00;;;7.80
25514;BMP180;48128;54.242;10.280;2024-02-21T05:31:20;100910.00;;;7.80
25514;BMP180;48128;54.242;10.280;2024-02-21T05:33:48;100898.00;;;7.70
25514;BMP180;48128;54.242;10.280;2024-02-21T05:36:15;100895.00;;;7.70
25514;BMP180;48128;54.242;10.280;2024-02-21T05:38:42;100898.00;;;7.70
25514;BMP180;48128;54.242;10.280;2024-02-21T05:41:09;100899.00;;;7.70
25514;BMP180;48128;54.242;10.280;2024-02-21T05:43:38;100889.00;;;7.70
25514;BMP180;48128;54.242;10.280;2024-02-21T05:46:05;100891.00;;;7.70
25514;BMP180;48128;54.242;10.280;2024-02-21T05:48:32;100900.00;;;7.60
25514;BMP180;48128;54.242;10.280;2024-02-21T05:51:05;100887.00;;;7.60
25514;BMP180;48128;54.242;10.280;2024-02-21T05:53:32;100892.00;;;7.60
25514;BMP180;48128;54.242;10.280;2024-02-21T05:55:58;100896.00;;;7.60
25514;BMP180;48128;54.242;10.280;2024-02-21T05:58:26;100891.00;;;7.60
25514;BMP180;48128;54.242;10.280;2024-02-21T06:00:53;100900.00;;;7.60
25514;BMP180;48128;54.242;10.280;2024-02-21T06:03:20;100902.00;;;7.60
25514;BMP180;48128;54.242;10.280;2024-02-21T06:05:47;100902.00;;;7.60
25514;BMP180;48128;54.242;10.280;2024-02-21T06:08:14;100897.00;;;7.60
25514;BMP180;48128;54.242;10.280;2024-02-21T06:10:41;100890.00;;;7.60
25514;BMP180;48128;54.242;10.280;2024-02-21T06:13:08;100897.00;;;7.60
25514;BMP180;48128;54.242;10.280;2024-02-21T06:15:36;100910.00;;;7.60
25514;BMP180;48128;54.242;10.280;2024-02-21T06:18:06;100913.00;;;7.60
25514;BMP180;48128;54.242;10.280;2024-02-21T06:20:34;100908.00;;;7.60
25514;BMP180;48128;54.242;10.280;2024-02-21T06:23:03;100920.00;;;7.60
25514;BMP180;48128;54.242;10.280;2024-02-21T06:25:30;100921.00;;;7.60
25514;BMP180;48128;54.242;10.280;2024-02-21T06:27:57;100938.00;;;7.60
25514;BMP180;48128;54.242;10.280;2024-02-21T06:30:24;100924.00;;;7.60
25514;BMP180;48128;54.242;10.280;2024-02-21T06:32:51;100932.00;;;7.60
25514;BMP180;48128;54.242;10.280;2024-02-21T06:35:18;100940.00;;;7.60
25514;BMP180;48128;54.242;10.280;2024-02-21T06:37:48;100947.00;;;7.60
25514;BMP180;48128;54.242;10.280;2024-02-21T06:40:21;100941.00;;;7.60
25514;BMP180;48128;54.242;10.280;2024-02-21T06:42:49;100928.00;;;7.60
25514;BMP180;48128;54.242;10.280;2024-02-21T06:45:16;100923.00;;;7.60
25514;BMP180;48128;54.242;10.280;2024-02-21T06:47:43;100927.00;;;7.60
25514;BMP180;48128;54.242;10.280;2024-02-21T06:50:10;100935.00;;;7.60
25514;BMP180;48128;54.242;10.280;2024-02-21T06:52:37;100925.00;;;7.60
25514;BMP180;48128;54.242;10.280;2024-02-21T06:55:04;100925.00;;;7.50
25514;BMP180;48128;54.242;10.280;2024-02-21T06:57:31;100927.00;;;7.50
25514;BMP180;48128;54.242;10.280;2024-02-21T06:59:58;100935.00;;;7.50
25514;BMP180;48128;54.242;10.280;2024-02-21T07:02:25;100936.00;;;7.50
25514;BMP180;48128;54.242;10.280;2024-02-21T07:04:52;100920.00;;;7.50
25514;BMP180;48128;54.242;10.280;2024-02-21T07:07:19;100931.00;;;7.50
25514;BMP180;48128;54.242;10.280;2024-02-21T07:09:46;100929.00;;;7.50
25514;BMP180;48128;54.242;10.280;2024-02-21T07:12:15;100924.00;;;7.40
25514;BMP180;48128;54.242;10.280;2024-02-21T07:14:42;100929.00;;;7.40
25514;BMP180;48128;54.242;10.280;2024-02-21T07:17:09;100939.00;;;7.30
25514;BMP180;48128;54.242;10.280;2024-02-21T07:19:36;100943.00;;;7.30
25514;BMP180;48128;54.242;10.280;2024-02-21T07:22:03;100941.00;;;7.30
25514;BMP180;48128;54.242;10.280;2024-02-21T07:24:30;100927.00;;;7.20
25514;BMP180;48128;54.242;10.280;2024-02-21T07:26:58;100923.00;;;7.20
25514;BMP180;48128;54.242;10.280;2024-02-21T07:29:31;100908.00;;;7.20
25514;BMP180;48128;54.242;10.280;2024-02-21T07:31:58;100920.00;;;7.10
25514;BMP180;48128;54.242;10.280;2024-02-21T07:34:25;100928.00;;;7.10
25514;BMP180;48128;54.242;10.280;2024-02-21T07:36:52;100934.00;;;7.10
25514;BMP180;48128;54.242;10.280;2024-02-21T07:39:19;100935.00;;;7.10
25514;BMP180;48128;54.242;10.280;2024-02-21T07:41:46;100944.00;;;7.20
25514;BMP180;48128;54.242;10.280;2024-02-21T07:44:15;100952.00;;;7.20
25514;BMP180;48128;54.242;10.280;2024-02-21T07:46:42;100969.00;;;7.30
25514;BMP180;48128;54.242;10.280;2024-02-21T07:49:11;100975.00;;;7.40
25514;BMP180;48128;54.242;10.280;2024-02-21T07:51:38;100981.00;;;7.40
25514;BMP180;48128;54.242;10.280;2024-02-21T07:54:04;100977.00;;;7.40
25514;BMP180;48128;54.242;10.280;2024-02-21T07:56:31;100965.00;;;7.40
25514;BMP180;48128;54.242;10.280;2024-02-21T07:58:59;100966.00;;;7.50
25514;BMP180;48128;54.242;10.280;2024-02-21T08:01:26;100969.00;;;7.50
25514;BMP180;48128;54.242;10.280;2024-02-21T08:03:53;100974.00;;;7.50
25514;BMP180;48128;54.242;10.280;2024-02-21T08:06:20;100960.00;;;7.60
25514;BMP180;48128;54.242;10.280;2024-02-21T08:08:47;100952.00;;;7.60
25514;BMP180;48128;54.242;10.280;2024-02-21T08:11:14;100968.00;;;7.60
25514;BMP180;48128;54.242;10.280;2024-02-21T08:13:41;100959.00;;;7.50
25514;BMP180;48128;54.242;10.280;2024-02-21T08:16:08;100964.00;;;7.50
25514;BMP180;48128;54.242;10.280;2024-02-21T08:18:35;100970.00;;;7.50
25514;BMP180;48128;54.242;10.280;2024-02-21T08:21:05;100960.00;;;7.50
25514;BMP180;48128;54.242;10.280;2024-02-21T08:23:32;100966.00;;;7.40
25514;BMP180;48128;54.242;10.280;2024-02-21T08:25:59;100971.00;;;7.50
25514;BMP180;48128;54.242;10.280;2024-02-21T08:28:25;100968.00;;;7.50
25514;BMP180;48128;54.242;10.280;2024-02-21T08:30:56;100963.00;;;7.50
25514;BMP180;48128;54.242;10.280;2024-02-21T08:33:23;100966.00;;;7.50
25514;BMP180;48128;54.242;10.280;2024-02-21T08:35:52;100958.00;;;7.50
25514;BMP180;48128;54.242;10.280;2024-02-21T08:38:19;100960.00;;;7.50
25514;BMP180;48128;54.242;10.280;2024-02-21T08:40:45;100950.00;;;7.60
25514;BMP180;48128;54.242;10.280;2024-02-21T08:43:14;100946.00;;;7.60
25514;BMP180;48128;54.242;10.280;2024-02-21T08:45:41;100959.00;;;7.60
25514;BMP180;48128;54.242;10.280;2024-02-21T08:48:07;100960.00;;;7.70
25514;BMP180;48128;54.242;10.280;2024-02-21T08:50:35;100972.00;;;7.70
25514;BMP180;48128;54.242;10.280;2024-02-21T08:53:03;100959.00;;;7.70
25514;BMP180;48128;54.242;10.280;2024-02-21T08:55:30;100965.00;;;7.80
25514;BMP180;48128;54.242;10.280;2024-02-21T08:57:57;100961.00;;;7.80
25514;BMP180;48128;54.242;10.280;2024-02-21T09:00:24;100972.00;;;7.80
25514;BMP180;48128;54.242;10.280;2024-02-21T09:02:54;100967.00;;;7.80
25514;BMP180;48128;54.242;10.280;2024-02-21T09:05:23;100972.00;;;7.90
25514;BMP180;48128;54.242;10.280;2024-02-21T09:07:51;100973.00;;;7.90
25514;BMP180;48128;54.242;10.280;2024-02-21T09:10:18;100983.00;;;8.00
25514;BMP180;48128;54.242;10.280;2024-02-21T09:12:45;100977.00;;;8.00
25514;BMP180;48128;54.242;10.280;2024-02-21T09:15:12;100983.00;;;8.10
25514;BMP180;48128;54.242;10.280;2024-02-21T09:17:39;100978.00;;;8.20
25514;BMP180;48128;54.242;10.280;2024-02-21T09:20:07;100995.00;;;8.30
25514;BMP180;48128;54.242;10.280;2024-02-21T09:22:34;101012.00;;;8.30
25514;BMP180;48128;54.242;10.280;2024-02-21T09:25:02;100996.00;;;8.40
25514;BMP180;48128;54.242;10.280;2024-02-21T09:27:30;101013.00;;;8.50
25514;BMP180;48128;54.242;10.280;2024-02-21T09:29:57;101014.00;;;8.50
25514;BMP180;48128;54.242;10.280;2024-02-21T09:32:25;101027.00;;;8.70
25514;BMP180;48128;54.242;10.280;2024-02-21T09:34:52;101013.00;;;8.90
25514;BMP180;48128;54.242;10.280;2024-02-21T09:37:26;101021.00;;;8.90
25514;BMP180;48128;54.242;10.280;2024-02-21T09:39:54;101025.00;;;8.90
25514;BMP180;48128;54.242;10.280;2024-02-21T09:42:21;101023.00;;;8.90
25514;BMP180;48128;54.242;10.280;2024-02-21T09:44:50;101039.00;;;8.90
25514;BMP180;48128;54.242;10.280;2024-02-21T09:47:20;101016.00;;;8.90
25514;BMP180;48128;54.242;10.280;2024-02-21T09:49:49;101025.00;;;8.80
25514;BMP180;48128;54.242;10.280;2024-02-21T09:52:16;101035.00;;;8.80
25514;BMP180;48128;54.242;10.280;2024-02-21T09:54:45;101030.00;;;8.70
25514;BMP180;48128;54.242;10.280;2024-02-21T09:57:13;101012.00;;;8.60
25514;BMP180;48128;54.242;10.280;2024-02-21T09:59:40;101016.00;;;8.60
25514;BMP180;48128;54.242;10.280;2024-02-21T10:02:08;101019.00;;;8.60
25514;BMP180;48128;54.242;10.280;2024-02-21T10:04:36;101003.00;;;8.80
25514;BMP180;48128;54.242;10.280;2024-02-21T10:07:03;101013.00;;;8.90
25514;BMP180;48128;54.242;10.280;2024-02-21T10:09:31;101010.00;;;9.00
25514;BMP180;48128;54.242;10.280;2024-02-21T10:12:11;101018.00;;;9.20
25514;BMP180;48128;54.242;10.280;2024-02-21T10:14:39;101023.00;;;9.40
25514;BMP180;48128;54.242;10.280;2024-02-21T10:17:06;101019.00;;;9.60
25514;BMP180;48128;54.242;10.280;2024-02-21T10:19:38;101009.00;;;9.70
25514;BMP180;48128;54.242;10.280;2024-02-21T10:22:08;101019.00;;;9.80
25514;BMP180;48128;54.242;10.280;2024-02-21T10:24:36;101017.00;;;9.90
25514;BMP180;48128;54.242;10.280;2024-02-21T10:27:09;101029.00;;;9.90
25514;BMP180;48128;54.242;10.280;2024-02-21T10:29:38;101033.00;;;9.90
25514;BMP180;48128;54.242;10.280;2024-02-21T10:32:10;101009.00;;;9.90
25514;BMP180;48128;54.242;10.280;2024-02-21T10:34:39;100991.00;;;10.00
25514;BMP180;48128;54.242;10.280;2024-02-21T10:37:09;100999.00;;;10.00
25514;BMP180;48128;54.242;10.280;2024-02-21T10:39:41;101004.00;;;10.20
25514;BMP180;48128;54.242;10.280;2024-02-21T10:42:10;100992.00;;;10.20
25514;BMP180;48128;54.242;10.280;2024-02-21T10:44:38;101028.00;;;10.20
25514;BMP180;48128;54.242;10.280;2024-02-21T10:47:10;101009.00;;;10.20
25514;BMP180;48128;54.242;10.280;2024-02-21T10:49:41;101005.00;;;10.20
25514;BMP180;48128;54.242;10.280;2024-02-21T10:54:58;100990.00;;;10.50
25514;BMP180;48128;54.242;10.280;2024-02-21T10:57:27;101018.00;;;10.60
25514;BMP180;48128;54.242;10.280;2024-02-21T10:59:55;101008.00;;;10.60
25514;BMP180;48128;54.242;10.280;2024-02-21T11:02:22;100988.00;;;10.60
25514;BMP180;48128;54.242;10.280;2024-02-21T11:04:50;101003.00;;;10.80
25514;BMP180;48128;54.242;10.280;2024-02-21T11:07:19;100979.00;;;10.80
25514;BMP180;48128;54.242;10.280;2024-02-21T11:09:53;100978.00;;;11.00
25514;BMP180;48128;54.242;10.280;2024-02-21T11:12:24;100990.00;;;10.90
25514;BMP180;48128;54.242;10.280;2024-02-21T11:14:52;100996.00;;;10.90
25514;BMP180;48128;54.242;10.280;2024-02-21T11:17:20;100990.00;;;10.80
25514;BMP180;48128;54.242;10.280;2024-02-21T11:19:53;100980.00;;;10.80
25514;BMP180;48128;54.242;10.280;2024-02-21T11:22:21;100974.00;;;10.90
25514;BMP180;48128;54.242;10.280;2024-02-21T11:24:52;100966.00;;;10.90
25514;BMP180;48128;54.242;10.280;2024-02-21T11:27:21;100962.00;;;10.90
25514;BMP180;48128;54.242;10.280;2024-02-21T11:29:49;100983.00;;;11.20
25514;BMP180;48128;54.242;10.280;2024-02-21T11:32:21;100957.00;;;11.30
25514;BMP180;48128;54.242;10.280;2024-02-21T11:35:02;100946.00;;;11.40
25514;BMP180;48128;54.242;10.280;2024-02-21T11:37:32;100962.00;;;11.50
25514;BMP180;48128;54.242;10.280;2024-02-21T11:40:06;100929.00;;;11.50
25514;BMP180;48128;54.242;10.280;2024-02-21T11:42:36;100958.00;;;11.50
25514;BMP180;48128;54.242;10.280;2024-02-21T11:45:03;100939.00;;;11.50
25514;BMP180;48128;54.242;10.280;2024-02-21T11:47:30;100930.00;;;11.40
25514;BMP180;48128;54.242;10.280;2024-02-21T11:49:58;100920.00;;;11.30
25514;BMP180;48128;54.242;10.280;2024-02-21T11:52:26;100915.00;;;11.20
25514;BMP180;48128;54.242;10.280;2024-02-21T11:54:54;100907.00;;;11.00
25514;BMP180;48128;54.242;10.280;2024-02-21T11:57:24;100896.00;;;10.90
25514;BMP180;48128;54.242;10.280;2024-02-21T11:59:51;100881.00;;;10.80
25514;BMP180;48128;54.242;10.280;2024-02-21T12:02:26;100860.00;;;10.80
25514;BMP180;48128;54.242;10.280;2024-02-21T12:04:53;100850.00;;;10.80
25514;BMP180;48128;54.242;10.280;2024-02-21T12:07:21;100845.00;;;10.90
25514;BMP180;48128;54.242;10.280;2024-02-21T12:09:51;100845.00;;;10.80
25514;BMP180;48128;54.242;10.280;2024-02-21T12:12:20;100838.00;;;10.80
25514;BMP180;48128;54.242;10.280;2024-02-21T12:14:53;100821.00;;;10.80
25514;BMP180;48128;54.242;10.280;2024-02-21T12:17:20;100803.00;;;10.80
25514;BMP180;48128;54.242;10.280;2024-02-21T12:19:48;100801.00;;;10.90
25514;BMP180;48128;54.242;10.280;2024-02-21T12:22:19;100801.00;;;11.00
25514;BMP180;48128;54.242;10.280;2024-02-21T12:24:46;100797.00;;;11.00
25514;BMP180;48128;54.242;10.280;2024-02-21T12:27:15;100806.00;;;11.00
25514;BMP180;48128;54.242;10.280;2024-02-21T12:29:42;100793.00;;;10.90
25514;BMP180;48128;54.242;10.280;2024-02-21T12:32:09;100787.00;;;10.90
25514;BMP180;48128;54.242;10.280;2024-02-21T12:34:37;100781.00;;;10.90
25514;BMP180;48128;54.242;10.280;2024-02-21T12:37:19;100767.00;;;10.90
25514;BMP180;48128;54.242;10.280;2024-02-21T12:39:47;100766.00;;;10.80
25514;BMP180;48128;54.242;10.280;2024-02-21T12:42:14;100761.00;;;10.70
25514;BMP180;48128;54.242;10.280;2024-02-21T12:44:40;100758.00;;;10.70
25514;BMP180;48128;54.242;10.280;2024-02-21T12:47:09;100766.00;;;10.60
25514;BMP180;48128;54.242;10.280;2024-02-21T12:49:36;100742.00;;;10.60
25514;BMP180;48128;54.242;10.280;2024-02-21T12:52:08;100736.00;;;10.70
25514;BMP180;48128;54.242;10.280;2024-02-21T12:54:36;100741.00;;;10.70
25514;BMP180;48128;54.242;10.280;2024-02-21T12:57:03;100738.00;;;10.70
25514;BMP180;48128;54.242;10.280;2024-02-21T12:59:30;100731.00;;;10.70
25514;BMP180;48128;54.242;10.280;2024-02-21T13:01:57;100736.00;;;10.70
25514;BMP180;48128;54.242;10.280;2024-02-21T13:04:24;100724.00;;;10.70
25514;BMP180;48128;54.242;10.280;2024-02-21T13:06:51;100716.00;;;10.70
25514;BMP180;48128;54.242;10.280;2024-02-21T13:09:18;100721.00;;;10.60
25514;BMP180;48128;54.242;10.280;2024-02-21T13:11:46;100712.00;;;10.60
25514;BMP180;48128;54.242;10.280;2024-02-21T13:14:14;100706.00;;;10.50
25514;BMP180;48128;54.242;10.280;2024-02-21T13:16:41;100690.00;;;10.50
25514;BMP180;48128;54.242;10.280;2024-02-21T13:19:08;100690.00;;;10.40
25514;BMP180;48128;54.242;10.280;2024-02-21T13:21:36;100692.00;;;10.40
25514;BMP180;48128;54.242;10.280;2024-02-21T13:24:03;100687.00;;;10.30
25514;BMP180;48128;54.242;10.280;2024-02-21T13:26:30;100676.00;;;10.30
25514;BMP180;48128;54.242;10.280;2024-02-21T13:28:57;100670.00;;;10.30
25514;BMP180;48128;54.242;10.280;2024-02-21T13:31:24;100668.00;;;10.20
25514;BMP180;48128;54.242;10.280;2024-02-21T13:33:52;100662.00;;;10.10
25514;BMP180;48128;54.242;10.280;2024-02-21T13:36:19;100662.00;;;10.00
25514;BMP180;48128;54.242;10.280;2024-02-21T13:38:46;100656.00;;;10.00
25514;BMP180;48128;54.242;10.280;2024-02-21T13:41:14;100654.00;;;9.90
25514;BMP180;48128;54.242;10.280;2024-02-21T13:43:41;100647.00;;;9.80
25514;BMP180;48128;54.242;10.280;2024-02-21T13:46:08;100642.00;;;9.80
25514;BMP180;48128;54.242;10.280;2024-02-21T13:48:38;100639.00;;;9.70
25514;BMP180;48128;54.242;10.280;2024-02-21T13:51:05;100633.00;;;9.80
25514;BMP180;48128;54.242;10.280;2024-02-21T13:53:33;100629.00;;;9.70
25514;BMP180;48128;54.242;10.280;2024-02-21T13:56:01;100625.00;;;9.80
25514;BMP180;48128;54.242;10.280;2024-02-21T13:58:28;100633.00;;;9.80
25514;BMP180;48128;54.242;10.280;2024-02-21T14:00:55;100621.00;;;9.70